createdAt,value
2023-01-17T00:00:34.167Z,100.00
2023-01-17T00:05:56.070Z,100.00
2023-01-17T00:11:17.992Z,100.00
2023-01-17T00:16:39.823Z,100.00
2023-01-17T00:22:08.460Z,100.00
2023-01-17T00:27:31.111Z,100.00
2023-01-17T00:32:53.115Z,100.00
2023-01-17T00:38:21.917Z,100.00
2023-01-17T00:43:43.770Z,100.00
2023-01-17T00:49:06.735Z,100.00
2023-01-17T00:54:28.645Z,100.00
2023-01-17T00:59:50.749Z,100.00
2023-01-17T01:05:13.990Z,100.00
2023-01-17T01:10:36.169Z,100.00
2023-01-17T01:16:02.370Z,100.00
2023-01-17T01:21:24.364Z,100.00
2023-01-17T01:26:46.225Z,100.00
2023-01-17T01:32:08.119Z,100.00
2023-01-17T01:37:31.654Z,100.00
2023-01-17T01:42:59.760Z,100.00
2023-01-17T01:48:39.648Z,100.00
2023-01-17T01:54:08.108Z,100.00
2023-01-17T01:59:32.236Z,100.00
2023-01-17T02:04:54.155Z,100.00
2023-01-17T02:10:16.418Z,100.00
2023-01-17T02:16:06.268Z,100.00
2023-01-17T02:21:34.652Z,100.00
2023-01-17T02:27:04.359Z,100.00
2023-01-17T02:32:45.091Z,100.00
2023-01-17T02:38:16.415Z,100.00
2023-01-17T02:43:39.683Z,100.00
2023-01-17T02:49:01.681Z,100.00
2023-01-17T02:54:42.073Z,100.00
2023-01-17T03:00:23.190Z,100.00
2023-01-17T03:06:03.195Z,100.00
2023-01-17T03:11:25.140Z,100.00
2023-01-17T03:16:47.563Z,100.00
2023-01-17T03:22:09.583Z,100.00
2023-01-17T03:27:31.540Z,100.00
2023-01-17T03:32:53.403Z,100.00
2023-01-17T03:38:15.641Z,100.00
2023-01-17T03:43:37.510Z,100.00
2023-01-17T03:48:59.415Z,100.00
2023-01-17T03:54:21.284Z,100.00
2023-01-17T03:59:43.134Z,100.00
2023-01-17T04:05:05.338Z,100.00
2023-01-17T04:10:27.260Z,100.00
2023-01-17T04:15:51.125Z,100.00
2023-01-17T04:21:13.101Z,100.00
2023-01-17T04:26:35.005Z,100.00
2023-01-17T04:31:56.961Z,100.00
2023-01-17T04:37:18.895Z,100.00
2023-01-17T04:42:41.286Z,100.00
2023-01-17T04:48:06.945Z,100.00
2023-01-17T04:53:28.799Z,100.00
2023-01-17T04:58:50.774Z,100.00
2023-01-17T05:04:12.616Z,100.00
2023-01-17T05:09:34.451Z,100.00
2023-01-17T05:14:56.338Z,100.00
2023-01-17T05:20:19.205Z,100.00
2023-01-17T05:25:41.078Z,100.00
2023-01-17T05:31:02.933Z,100.00
2023-01-17T05:36:24.938Z,100.00
2023-01-17T05:41:46.788Z,100.00
2023-01-17T05:47:08.719Z,100.00
2023-01-17T05:52:30.586Z,100.00
2023-01-17T05:57:52.770Z,100.00
2023-01-17T06:03:15.306Z,100.00
2023-01-17T06:08:37.159Z,100.00
2023-01-17T06:13:59.039Z,100.00
2023-01-17T06:19:21.000Z,100.00
2023-01-17T06:24:42.826Z,100.00
2023-01-17T06:30:05.342Z,100.00
2023-01-17T06:35:27.388Z,100.00
2023-01-17T06:40:49.649Z,100.00
2023-01-17T06:46:11.615Z,100.00
2023-01-17T06:51:33.538Z,100.00
2023-01-17T06:56:55.456Z,100.00
2023-01-17T07:02:17.282Z,100.00
2023-01-17T07:07:39.131Z,100.00
2023-01-17T07:13:00.990Z,100.00
2023-01-17T07:18:22.816Z,98.82
2023-01-17T07:23:44.655Z,92.13
2023-01-17T07:29:06.676Z,92.05
2023-01-17T07:34:28.751Z,86.84
2023-01-17T07:39:50.739Z,85.09
2023-01-17T07:45:14.939Z,73.87
2023-01-17T07:50:37.279Z,79.31
2023-01-17T07:56:03.960Z,89.06
2023-01-17T08:01:25.920Z,91.76
2023-01-17T08:06:47.823Z,88.84
2023-01-17T08:12:10.146Z,70.16
2023-01-17T08:17:31.970Z,59.52
2023-01-17T08:22:55.487Z,57.71
2023-01-17T08:28:17.465Z,52.26
2023-01-17T08:33:39.279Z,53.18
2023-01-17T08:39:01.247Z,57.89
2023-01-17T08:44:23.514Z,61.99
2023-01-17T08:49:45.316Z,64.37
2023-01-17T08:55:07.791Z,69.95
2023-01-17T09:00:29.729Z,73.84
2023-01-17T09:06:02.745Z,75.66
2023-01-17T09:11:24.743Z,78.86
2023-01-17T09:16:46.646Z,79.75
2023-01-17T09:22:08.459Z,82.14
2023-01-17T09:27:30.372Z,82.43
2023-01-17T09:32:54.310Z,82.56
2023-01-17T09:38:16.911Z,82.97
2023-01-17T09:43:47.997Z,83.14
2023-01-17T09:49:26.386Z,84.15
2023-01-17T09:54:49.813Z,85.79
2023-01-17T10:00:29.629Z,84.68
2023-01-17T10:06:13.165Z,87.73
2023-01-17T10:11:42.201Z,88.00
2023-01-17T10:17:34.585Z,88.65
2023-01-17T10:23:02.326Z,88.07
2023-01-17T10:28:47.913Z,87.49
2023-01-17T10:34:21.837Z,87.79
2023-01-17T10:39:46.492Z,87.69
2023-01-17T10:45:22.370Z,86.87
2023-01-17T10:51:14.163Z,86.91
2023-01-17T10:56:39.346Z,87.61
2023-01-17T11:02:02.209Z,87.74
2023-01-17T11:07:26.252Z,87.94
2023-01-17T11:12:48.275Z,88.03
2023-01-17T11:18:16.901Z,88.26
2023-01-17T11:23:41.934Z,88.87
2023-01-17T11:29:34.175Z,88.76
2023-01-17T11:35:22.268Z,88.38
2023-01-17T11:40:45.217Z,91.76
2023-01-17T11:46:18.603Z,89.82
2023-01-17T11:51:42.371Z,90.77
2023-01-17T11:57:04.837Z,92.29
2023-01-17T12:02:44.954Z,90.35
2023-01-17T12:08:14.121Z,90.41
2023-01-17T12:14:01.328Z,89.41
2023-01-17T12:19:32.893Z,91.33
2023-01-17T12:25:22.954Z,89.57
2023-01-17T12:31:23.455Z,92.21
2023-01-17T12:36:57.289Z,90.25
2023-01-17T12:42:26.233Z,91.21
2023-01-17T12:47:53.555Z,90.72
2023-01-17T12:53:39.573Z,90.33
2023-01-17T12:59:15.345Z,90.04
2023-01-17T13:04:58.037Z,89.95
2023-01-17T13:10:33.811Z,89.55
2023-01-17T13:16:17.376Z,88.55
2023-01-17T13:21:40.916Z,88.24
2023-01-17T13:27:07.079Z,88.53
2023-01-17T13:33:22.790Z,88.21
2023-01-17T13:39:06.205Z,88.70
2023-01-17T13:44:28.911Z,89.75
2023-01-17T13:49:51.590Z,89.68
2023-01-17T13:55:44.465Z,89.15
2023-01-17T14:01:11.406Z,89.14
2023-01-17T14:06:33.257Z,89.29
2023-01-17T14:12:03.972Z,88.97
2023-01-17T14:17:27.530Z,89.74
2023-01-17T14:22:56.452Z,90.04
2023-01-17T14:28:31.703Z,90.38
2023-01-17T14:33:53.543Z,91.08
2023-01-17T14:39:22.237Z,91.77
2023-01-17T14:44:55.520Z,91.68
2023-01-17T14:50:28.894Z,92.10
2023-01-17T14:55:53.279Z,93.11
2023-01-17T15:01:19.997Z,92.85
2023-01-17T15:06:43.935Z,93.55
2023-01-17T15:12:10.287Z,94.07
2023-01-17T15:17:32.278Z,94.25
2023-01-17T15:22:54.434Z,94.69
2023-01-17T15:28:17.481Z,95.61
2023-01-17T15:33:42.851Z,96.25
2023-01-17T15:39:22.287Z,96.91
2023-01-17T15:44:49.144Z,98.08
2023-01-17T15:50:20.690Z,97.76
2023-01-17T15:55:48.232Z,98.47
2023-01-17T16:01:23.817Z,98.63
2023-01-17T16:06:45.768Z,99.20
2023-01-17T16:12:07.604Z,99.48
2023-01-17T16:17:30.286Z,99.71
2023-01-17T16:22:52.566Z,99.82
2023-01-17T16:28:14.563Z,100.00
2023-01-17T16:33:36.532Z,100.00
2023-01-17T16:38:58.566Z,100.00
2023-01-17T16:44:20.415Z,100.00
2023-01-17T16:49:42.276Z,100.00
2023-01-17T16:55:07.205Z,100.00
2023-01-17T17:00:29.031Z,100.00
2023-01-17T17:05:56.602Z,100.00
2023-01-17T17:11:21.258Z,100.00
2023-01-17T17:16:43.082Z,100.00
2023-01-17T17:22:04.982Z,100.00
2023-01-17T17:27:27.099Z,100.00
2023-01-17T17:32:48.921Z,100.00
2023-01-17T17:38:10.736Z,100.00
2023-01-17T17:43:41.449Z,100.00
2023-01-17T17:49:04.297Z,100.00
2023-01-17T17:54:26.156Z,100.00
2023-01-17T17:59:48.035Z,100.00
2023-01-17T18:05:10.095Z,100.00
2023-01-17T18:10:31.999Z,100.00
2023-01-17T18:16:13.544Z,100.00
2023-01-17T18:21:37.613Z,100.00
2023-01-17T18:26:59.537Z,100.00
2023-01-17T18:32:21.353Z,100.00
2023-01-17T18:37:43.191Z,100.00
2023-01-17T18:43:05.182Z,100.00
2023-01-17T18:48:27.292Z,100.00
2023-01-17T18:53:49.215Z,100.00
2023-01-17T18:59:15.433Z,100.00
2023-01-17T19:04:38.000Z,100.00
2023-01-17T19:10:00.184Z,100.00
2023-01-17T19:15:22.142Z,100.00
2023-01-17T19:20:44.867Z,100.00
2023-01-17T19:26:08.416Z,100.00
2023-01-17T19:31:32.053Z,100.00
2023-01-17T19:36:54.362Z,100.00
2023-01-17T19:42:16.336Z,100.00
2023-01-17T19:47:39.010Z,100.00
2023-01-17T19:53:00.888Z,100.00
2023-01-17T19:58:22.769Z,100.00
2023-01-17T20:03:46.598Z,100.00
2023-01-17T20:09:08.450Z,100.00
2023-01-17T20:14:30.341Z,100.00
2023-01-17T20:19:52.218Z,100.00
2023-01-17T20:25:14.140Z,100.00
2023-01-17T20:30:36.019Z,100.00
2023-01-17T20:36:10.756Z,100.00
2023-01-17T20:41:38.630Z,100.00
2023-01-17T20:47:00.562Z,100.00
2023-01-17T20:52:22.497Z,100.00
2023-01-17T20:57:44.388Z,100.00
2023-01-17T21:03:06.345Z,100.00
2023-01-17T21:08:33.383Z,100.00
2023-01-17T21:13:55.335Z,100.00
2023-01-17T21:19:17.293Z,100.00
2023-01-17T21:24:39.282Z,100.00
2023-01-17T21:30:01.321Z,100.00
2023-01-17T21:35:23.603Z,100.00
2023-01-17T21:40:45.839Z,100.00
2023-01-17T21:46:07.764Z,100.00
2023-01-17T21:51:29.706Z,100.00
2023-01-17T21:56:51.872Z,100.00
2023-01-17T22:02:13.854Z,100.00
2023-01-17T22:07:35.887Z,100.00
2023-01-17T22:12:58.263Z,100.00
2023-01-17T22:18:20.157Z,100.00
2023-01-17T22:23:49.335Z,100.00
2023-01-17T22:29:11.368Z,100.00
2023-01-17T22:34:33.237Z,100.00
2023-01-17T22:39:55.127Z,100.00
2023-01-17T22:45:17.172Z,100.00
2023-01-17T22:50:39.114Z,100.00
2023-01-17T22:56:06.669Z,100.00
2023-01-17T23:01:30.553Z,100.00
2023-01-17T23:06:52.435Z,100.00
2023-01-17T23:12:14.290Z,100.00
2023-01-17T23:17:36.113Z,100.00
2023-01-17T23:22:58.301Z,100.00
2023-01-17T23:28:20.475Z,100.00
2023-01-17T23:33:42.374Z,100.00
2023-01-17T23:39:04.258Z,100.00
2023-01-17T23:44:26.116Z,100.00
2023-01-17T23:49:47.975Z,100.00
2023-01-17T23:55:10.368Z,100.00
